Terminal Aerodrome Forecast
Issued by NWS Amarillo, TX

Home | Current Version | Previous Version | Text Only | Print | Product List | Glossary On
Versions: 1 2 3 4 5 6 7 8 9 10 11 12 13 14 15 16 17 18 19 20 21 22 23 24 25 26 27 28 29 30 31 32
000
FTUS44 KAMA 212000 AAA
TAFAMA
TAF AMD
KAMA 212039Z 2121/2218 06011KT P6SM SHRA VCTS BKN050CB
      TEMPO 2121/2123 11015G25KT 1SM +TSRA BKN020CB OVC050
     FM220000 11010KT P6SM BKN060
     FM221100 14010KT P6SM SCT020 BKN200=

USA.gov is the U.S. government's official web portal to all federal, state and local government web resources and services.